Arsenal, Pennsylvania
Current Conditions -  °F | °C
As of 7:53 PM on Sunday 23 Nov 2014 (Local Time) from KAGC Reporting Station
Broken Clouds Broken Clouds  
Wind Chill: 57°   Ceiling: 10000
Heat Index: 57°   Visibility: 10mi
Dew Point: 37°   Wind: 16mph
Humidity: 47%   Direction: 140°SE
Pressure: 29.71"   Gusts: 24mph
Location:  40.4738°N, 79.952°W
Report Text: KAGC 240053Z 14014G21KT 10SM BKN100 14/03 A2971 RMK AO2 SLP065 T01390028
Loading
Personal Weather Stations






























Interactive Weather Map New forecast layout! Learn more

10-Day Weather Forecast

Advertisements
Track Severe Weather on mobile